Time;durP1;ratioP1;P1;durP2;ratioP2;P2;SDS_P1;SDS_P2;PMS_P1;PMS_P2;Temp;Humidity;BMP_temperature;BMP_pressure;BME280_temperature;BME280_humidity;BME280_pressure;Samples;Min_cycle;Max_cycle;Signal;HPM_P1;HPM_P2
2023/06/25 00:01:56;;;;;;;2.47;1.30;;;22.40;99.90;;;22.61;54.28;101613.88;4978031;27;97913;-53
2023/06/25 00:04:22;;;;;;;2.57;1.73;;;22.40;99.90;;;22.62;53.88;101612.91;4978275;27;97538;-56
2023/06/25 00:06:48;;;;;;;2.07;1.63;;;22.50;99.90;;;22.66;53.89;101600.97;4975465;28;97063;-53
2023/06/25 00:09:14;;;;;;;2.23;1.20;;;22.50;99.90;;;22.67;53.86;101602.66;4954512;28;97559;-53
2023/06/25 00:11:40;;;;;;;2.70;1.53;;;22.50;99.90;;;22.71;53.93;101593.44;4955373;28;98814;-56
2023/06/25 00:14:06;;;;;;;1.43;1.13;;;22.60;99.90;;;22.70;53.96;101596.22;4962824;27;105249;-55
2023/06/25 00:16:33;;;;;;;1.80;1.10;;;22.60;99.90;;;22.72;54.03;101586.22;4959378;28;104806;-54
2023/06/25 00:19:00;;;;;;;3.63;1.93;;;22.60;99.90;;;22.72;54.11;101584.41;4978232;28;97958;-53
2023/06/25 00:21:26;;;;;;;2.13;1.20;;;22.60;99.90;;;22.75;53.67;101583.31;4985227;28;97488;-53
2023/06/25 00:23:52;;;;;;;5.13;2.47;;;22.60;99.90;;;22.75;53.66;101584.16;4980867;27;97599;-54
2023/06/25 00:26:18;;;;;;;2.43;1.63;;;22.60;99.90;;;22.74;53.60;101593.22;4977581;28;97430;-53
2023/06/25 00:28:45;;;;;;;2.23;1.17;;;22.60;99.90;;;22.71;53.78;101582.69;4975408;28;98956;-52
2023/06/25 00:31:12;;;;;;;1.03;0.90;;;22.50;99.90;;;22.72;54.01;101588.91;4979369;28;97427;-54
2023/06/25 00:33:41;;;;;;;2.30;1.40;;;22.60;99.90;;;22.72;53.73;101573.66;4972114;27;99894;-54
2023/06/25 00:36:07;;;;;;;1.73;1.30;;;22.60;99.90;;;22.74;53.96;101577.06;4994806;27;96936;-55
2023/06/25 00:38:35;;;;;;;1.77;1.20;;;22.60;99.90;;;22.73;53.87;101572.66;4978955;27;97183;-57
2023/06/25 00:41:01;;;;;;;3.37;1.87;;;22.60;99.90;;;22.75;53.83;101568.03;4972579;28;98666;-53
2023/06/25 00:43:27;;;;;;;3.30;2.53;;;22.60;99.90;;;22.77;53.50;101582.22;4979868;28;105854;-54
2023/06/25 00:45:52;;;;;;;1.93;1.20;;;22.60;99.90;;;22.75;53.57;101572.56;4985093;28;97025;-55
2023/06/25 00:48:21;;;;;;;1.40;1.27;;;22.60;99.90;;;22.74;53.81;101571.69;4992525;27;97296;-53
2023/06/25 00:50:48;;;;;;;2.67;1.90;;;22.60;99.90;;;22.73;53.74;101574.50;4982592;28;100896;-55
2023/06/25 00:53:15;;;;;;;3.10;2.00;;;22.50;99.90;;;22.71;53.67;101571.94;4968880;28;97473;-54
2023/06/25 00:55:41;;;;;;;2.17;1.30;;;22.50;99.90;;;22.71;53.73;101577.31;4961620;28;97449;-53
2023/06/25 00:58:07;;;;;;;1.80;1.20;;;22.50;99.90;;;22.69;53.82;101576.53;4971322;28;98521;-55
2023/06/25 01:00:34;;;;;;;1.77;1.20;;;22.50;99.90;;;22.71;53.74;101571.03;4976719;28;97282;-55
2023/06/25 01:03:26;;;;;;;1.60;1.20;;;22.50;99.90;;;22.73;53.77;101569.13;4981019;28;96791;-54
2023/06/25 01:06:10;;;;;;;1.90;1.20;;;22.60;99.90;;;22.73;53.61;101559.22;4979437;28;97542;-54
2023/06/25 01:08:38;;;;;;;1.30;0.97;;;22.60;99.90;;;22.71;53.79;101555.78;4969538;27;97097;-58
2023/06/25 01:11:05;;;;;;;1.97;1.20;;;22.60;99.90;;;22.71;53.78;101558.47;4972133;28;97790;-56
2023/06/25 01:13:32;;;;;;;1.93;1.40;;;22.60;99.90;;;22.73;53.56;101553.84;4978205;28;97410;-54
2023/06/25 01:15:57;;;;;;;1.33;1.10;;;22.60;99.90;;;22.73;53.73;101555.69;4978842;28;96830;-54
2023/06/25 01:18:23;;;;;;;1.20;0.90;;;22.60;99.90;;;22.74;53.70;101550.19;4971329;27;104086;-52
2023/06/25 01:20:53;;;;;;;2.43;1.03;;;22.60;99.90;;;22.76;53.59;101552.75;4951005;28;101559;-60
2023/06/25 01:23:21;;;;;;;3.07;1.13;;;22.60;99.90;;;22.76;53.45;101553.63;4982432;28;101187;-56
2023/06/25 01:25:48;;;;;;;1.40;1.03;;;22.60;99.90;;;22.77;53.55;101555.31;4983368;28;97193;-54
2023/06/25 01:28:20;;;;;;;2.53;1.20;;;22.60;99.90;;;22.76;53.61;101553.63;4977621;28;96986;-54
2023/06/25 01:30:52;;;;;;;1.30;1.00;;;22.60;99.90;;;22.78;53.54;101550.81;4988033;28;100320;-52
2023/06/25 01:33:25;;;;;;;2.23;1.40;;;22.60;99.90;;;22.78;53.59;101546.28;4980192;28;102679;-54
2023/06/25 01:35:53;;;;;;;1.80;1.27;;;22.60;99.90;;;22.77;53.52;101547.25;4982226;28;97488;-54
2023/06/25 01:38:19;;;;;;;1.70;1.10;;;22.60;99.90;;;22.77;53.56;101549.94;4986920;28;97228;-54
2023/06/25 01:40:45;;;;;;;1.10;0.73;;;22.60;99.90;;;22.76;53.58;101548.22;4982672;27;101020;-52
2023/06/25 01:43:11;;;;;;;1.70;1.13;;;22.60;99.90;;;22.76;53.62;101540.16;4981959;28;96891;-56
2023/06/25 01:45:37;;;;;;;1.10;1.00;;;22.60;99.90;;;22.79;53.47;101536.38;4985358;27;99435;-57
2023/06/25 01:48:03;;;;;;;1.43;1.00;;;22.70;99.90;;;22.79;53.28;101542.63;4982151;27;97402;-58
2023/06/25 01:50:29;;;;;;;1.30;1.03;;;22.70;99.90;;;22.78;53.56;101540.06;4985454;28;97723;-58
2023/06/25 01:52:54;;;;;;;2.27;1.03;;;22.60;99.90;;;22.77;53.66;101533.81;4986255;28;99286;-53
2023/06/25 01:55:20;;;;;;;1.30;1.07;;;22.70;99.90;;;22.78;53.50;101529.28;4992241;27;104524;-56
2023/06/25 01:57:46;;;;;;;1.13;1.00;;;22.70;99.90;;;22.79;53.43;101531.00;4983062;28;97569;-56
2023/06/25 02:00:13;;;;;;;2.20;1.50;;;22.70;99.90;;;22.79;53.63;101525.63;4987988;28;97490;-53
2023/06/25 02:02:38;;;;;;;1.40;0.87;;;22.70;99.90;;;22.78;53.62;101518.53;4980739;28;99230;-55
2023/06/25 02:05:04;;;;;;;1.47;1.10;;;22.60;99.90;;;22.77;53.66;101515.00;4984205;28;106796;-55
2023/06/25 02:07:30;;;;;;;1.47;1.00;;;22.70;99.90;;;22.77;53.56;101509.59;4982146;27;97056;-53
2023/06/25 02:09:57;;;;;;;2.13;1.60;;;22.70;99.90;;;22.78;53.57;101519.41;4979842;27;98803;-57
2023/06/25 02:12:22;;;;;;;1.50;0.93;;;22.70;99.90;;;22.80;53.41;101513.91;4982984;28;107508;-55
2023/06/25 02:14:48;;;;;;;1.03;0.90;;;22.70;99.90;;;22.79;53.51;101510.34;4987148;27;103386;-55
2023/06/25 02:17:14;;;;;;;1.80;1.13;;;22.70;99.90;;;22.78;53.52;101503.25;4961155;28;97205;-54
2023/06/25 02:19:40;;;;;;;1.40;0.90;;;22.60;99.90;;;22.76;53.66;101505.19;4978661;28;108124;-55
2023/06/25 02:22:06;;;;;;;1.43;1.13;;;22.60;99.90;;;22.78;53.63;101500.56;4989228;27;97552;-55
2023/06/25 02:24:32;;;;;;;2.13;1.37;;;22.60;99.90;;;22.78;53.67;101502.41;4971962;28;97241;-56
2023/06/25 02:26:57;;;;;;;4.03;1.90;;;22.70;99.90;;;22.79;53.43;101504.13;4977028;27;111842;-58
2023/06/25 02:29:24;;;;;;;2.13;1.60;;;22.70;99.90;;;22.79;53.40;101510.34;4982088;27;106829;-58
2023/06/25 02:31:49;;;;;;;1.60;1.47;;;22.70;99.90;;;22.78;53.56;101511.31;4971625;28;106995;-59
2023/06/25 02:34:16;;;;;;;5.17;2.33;;;22.60;99.90;;;22.77;53.28;101506.06;4979311;27;100130;-57
2023/06/25 02:36:43;;;;;;;2.00;1.50;;;22.60;99.90;;;22.75;53.70;101500.81;4982207;27;97601;-56
2023/06/25 02:39:09;;;;;;;2.10;1.20;;;22.60;99.90;;;22.72;53.50;101501.03;4983935;28;100117;-55
2023/06/25 02:41:35;;;;;;;2.53;1.63;;;22.50;99.90;;;22.71;53.81;101502.00;4984258;27;109123;-57
2023/06/25 02:44:00;;;;;;;1.63;1.40;;;22.50;99.90;;;22.69;53.85;101495.00;4982898;28;97414;-58
2023/06/25 02:46:26;;;;;;;1.47;1.10;;;22.50;99.90;;;22.68;53.92;101494.13;4984182;27;97581;-58
2023/06/25 02:48:52;;;;;;;1.63;1.00;;;22.50;99.90;;;22.71;53.66;101490.34;4974220;28;97819;-58
2023/06/25 02:51:18;;;;;;;2.20;1.03;;;22.50;99.90;;;22.71;53.81;101496.63;4977743;28;96970;-57
2023/06/25 02:53:43;;;;;;;2.03;1.30;;;22.60;99.90;;;22.72;53.78;101495.66;4990689;28;97590;-54
2023/06/25 02:56:09;;;;;;;1.37;1.13;;;22.60;99.90;;;22.73;53.72;101500.06;4972153;27;97205;-55
2023/06/25 02:58:35;;;;;;;0.97;0.90;;;22.60;99.90;;;22.74;53.81;101499.09;4973780;28;112905;-57
2023/06/25 03:01:01;;;;;;;2.17;1.40;;;22.60;99.90;;;22.75;53.80;101498.09;4984112;27;97419;-56
2023/06/25 03:03:26;;;;;;;1.20;1.10;;;22.60;99.90;;;22.75;53.72;101498.09;4989455;28;109593;-56
2023/06/25 03:05:53;;;;;;;1.50;1.23;;;22.60;99.90;;;22.74;53.73;101496.41;4983216;28;109623;-55
2023/06/25 03:08:19;;;;;;;2.10;1.30;;;22.60;99.90;;;22.75;53.65;101492.72;4989070;27;121377;-58
2023/06/25 03:10:44;;;;;;;1.53;1.07;;;22.60;99.90;;;22.74;53.79;101488.31;4967738;28;106152;-54
2023/06/25 03:13:11;;;;;;;1.70;1.33;;;22.60;99.90;;;22.72;53.78;101490.28;4977022;27;97191;-55
2023/06/25 03:15:37;;;;;;;1.37;1.03;;;22.60;99.90;;;22.73;53.79;101488.44;4985093;27;97729;-57
2023/06/25 03:18:03;;;;;;;2.60;1.50;;;22.60;99.90;;;22.74;53.84;101496.41;4984156;28;98051;-53
2023/06/25 03:20:29;;;;;;;1.93;1.57;;;22.60;99.90;;;22.75;53.70;101494.56;4986341;27;102352;-57
2023/06/25 03:22:55;;;;;;;5.07;2.73;;;22.60;99.90;;;22.71;53.42;101496.63;4987283;27;100650;-54
2023/06/25 03:25:20;;;;;;;3.00;2.07;;;22.50;99.90;;;22.63;53.92;101499.00;4976507;28;97720;-56
2023/06/25 03:27:46;;;;;;;2.00;1.40;;;22.40;99.90;;;22.55;54.25;101496.00;4977476;28;109410;-56
2023/06/25 03:30:12;;;;;;;2.00;1.30;;;22.20;99.90;;;22.50;54.43;101496.34;4957116;28;97256;-54
2023/06/25 03:32:38;;;;;;;3.47;2.20;;;22.20;99.90;;;22.49;54.28;101493.78;4986989;28;97506;-56
2023/06/25 03:35:04;;;;;;;1.90;1.40;;;22.20;99.90;;;22.46;54.55;101496.69;4980081;28;97356;-56
2023/06/25 03:37:30;;;;;;;2.80;1.87;;;22.20;99.90;;;22.44;54.74;101493.25;4977026;27;105456;-57
2023/06/25 03:39:55;;;;;;;2.30;1.57;;;22.10;99.90;;;22.44;54.67;101488.75;4973110;27;101734;-57
2023/06/25 03:42:22;;;;;;;2.33;1.70;;;22.20;99.90;;;22.44;54.57;101490.56;4987317;28;97042;-54
2023/06/25 03:44:55;;;;;;;1.50;1.27;;;22.20;99.90;;;22.46;54.70;101485.94;4988455;28;104407;-57
2023/06/25 03:47:21;;;;;;;1.23;0.93;;;22.20;99.90;;;22.47;54.66;101487.66;4976466;27;110857;-55
2023/06/25 03:49:47;;;;;;;1.23;1.10;;;22.30;99.90;;;22.49;54.55;101488.38;4967904;28;99550;-57
2023/06/25 03:52:13;;;;;;;2.07;1.47;;;22.30;99.90;;;22.50;54.45;101484.72;4972222;28;97347;-57
2023/06/25 03:54:39;;;;;;;1.93;1.10;;;22.30;99.90;;;22.51;54.42;101483.75;4978178;27;97271;-58
2023/06/25 03:57:05;;;;;;;2.67;1.73;;;22.40;99.90;;;22.53;54.43;101487.19;4978597;28;122156;-57
2023/06/25 03:59:31;;;;;;;1.57;1.10;;;22.40;99.90;;;22.55;54.45;101487.94;4961305;28;97319;-55
2023/06/25 04:01:57;;;;;;;2.47;1.20;;;22.40;99.90;;;22.57;54.31;101483.34;4975864;28;99046;-58
2023/06/25 04:04:23;;;;;;;1.73;1.30;;;22.40;99.90;;;22.59;54.25;101486.75;4975138;28;97699;-57
2023/06/25 04:06:48;;;;;;;2.13;1.30;;;22.50;99.90;;;22.60;54.17;101483.09;4984517;27;114921;-56
2023/06/25 04:09:14;;;;;;;3.43;1.40;;;22.50;99.90;;;22.62;54.21;101486.53;4984101;27;106234;-56
2023/06/25 04:11:40;;;;;;;2.63;1.47;;;22.50;99.90;;;22.64;54.15;101484.59;4974688;28;97545;-55
2023/06/25 04:14:06;;;;;;;1.90;1.50;;;22.50;99.90;;;22.66;54.09;101485.31;4972769;27;97002;-57
2023/06/25 04:16:31;;;;;;;1.47;1.13;;;22.60;99.90;;;22.68;54.12;101487.91;4957689;27;98950;-58
2023/06/25 04:18:57;;;;;;;1.00;0.90;;;22.60;99.90;;;22.69;54.00;101485.09;4985805;27;97043;-57
2023/06/25 04:21:23;;;;;;;1.97;1.40;;;22.60;99.90;;;22.72;53.84;101482.22;4984341;27;97310;-56
2023/06/25 04:23:49;;;;;;;1.80;1.50;;;22.60;99.90;;;22.73;54.02;101483.91;4985556;28;97475;-56
2023/06/25 04:26:15;;;;;;;2.17;1.63;;;22.60;99.90;;;22.72;54.11;101484.91;4987575;28;105238;-54
2023/06/25 04:28:40;;;;;;;1.43;1.13;;;22.60;99.90;;;22.73;53.99;101492.00;4982645;27;97002;-56
2023/06/25 04:31:06;;;;;;;1.93;1.60;;;22.60;99.90;;;22.76;53.89;101491.75;4969258;28;101778;-57
2023/06/25 04:33:34;;;;;;;2.10;1.40;;;22.60;99.90;;;22.76;53.88;101497.13;4983333;28;97372;-55
2023/06/25 04:36:00;;;;;;;1.70;1.30;;;22.60;99.90;;;22.76;53.88;101488.22;4976558;28;97456;-55
2023/06/25 04:38:26;;;;;;;1.43;1.13;;;22.60;99.90;;;22.77;53.87;101482.72;4984898;28;100933;-54
2023/06/25 04:40:52;;;;;;;1.70;1.20;;;22.60;99.90;;;22.77;53.84;101488.09;4984044;28;104713;-55
2023/06/25 04:43:17;;;;;;;2.47;1.60;;;22.70;99.90;;;22.77;53.80;101484.53;4983499;28;107501;-54
2023/06/25 04:45:44;;;;;;;1.57;1.37;;;22.70;99.90;;;22.76;53.78;101483.69;4978345;28;117015;-55
2023/06/25 04:48:09;;;;;;;1.90;1.40;;;22.70;99.90;;;22.79;53.83;101491.53;4972731;27;98181;-56
2023/06/25 04:50:35;;;;;;;1.77;1.43;;;22.70;99.90;;;22.78;53.76;101489.81;4975129;27;99002;-56
2023/06/25 04:53:01;;;;;;;4.17;2.70;;;22.70;99.90;;;22.79;54.08;101483.44;4976425;28;97664;-55
2023/06/25 04:55:28;;;;;;;4.83;2.73;;;22.70;99.90;;;22.79;55.60;101482.59;4982750;28;106415;-54
2023/06/25 04:57:54;;;;;;;3.13;2.30;;;22.60;99.90;;;22.74;54.70;101485.63;4980792;28;97604;-57
2023/06/25 05:00:20;;;;;;;2.37;1.43;;;22.60;99.90;;;22.71;54.10;101485.88;4987307;27;97183;-56
2023/06/25 05:02:45;;;;;;;4.93;2.90;;;22.50;99.90;;;22.72;54.49;101486.72;4969858;28;97410;-53
2023/06/25 05:05:11;;;;;;;2.30;1.50;;;22.50;99.90;;;22.67;54.23;101484.34;4990158;28;97884;-55
2023/06/25 05:07:37;;;;;;;3.40;2.67;;;22.50;99.90;;;22.68;54.80;101485.22;4990307;27;102078;-58
2023/06/25 05:10:03;;;;;;;3.23;2.87;;;22.50;99.90;;;22.68;54.40;101490.59;4981938;28;97121;-53
2023/06/25 05:12:29;;;;;;;2.33;1.80;;;22.50;99.90;;;22.66;54.16;101489.84;4978670;28;97045;-56
2023/06/25 05:14:55;;;;;;;2.30;1.80;;;22.50;99.90;;;22.65;54.17;101491.69;4997575;27;98831;-55
2023/06/25 05:17:20;;;;;;;1.47;1.33;;;22.60;99.90;;;22.67;54.07;101483.50;4983713;27;118632;-60
2023/06/25 05:19:46;;;;;;;2.87;1.67;;;22.60;99.90;;;22.67;54.10;101488.88;4990616;28;101137;-55
2023/06/25 05:22:12;;;;;;;2.57;1.63;;;22.60;99.90;;;22.63;54.33;101487.38;4979115;27;97556;-51
2023/06/25 05:24:37;;;;;;;2.00;1.30;;;22.60;99.90;;;22.63;54.42;101490.94;4987002;28;97133;-55
2023/06/25 05:27:04;;;;;;;1.87;1.30;;;22.60;99.90;;;22.69;54.05;101487.78;4972470;28;106179;-57
2023/06/25 05:29:30;;;;;;;2.07;1.47;;;22.60;99.90;;;22.72;54.04;101495.66;4979737;27;97140;-57
2023/06/25 05:31:55;;;;;;;2.00;1.47;;;22.70;99.90;;;22.75;53.96;101497.25;4985094;27;103854;-54
2023/06/25 05:34:22;;;;;;;1.97;1.50;;;22.70;99.90;;;22.73;54.13;101497.38;4980745;27;104260;-53
2023/06/25 05:36:48;;;;;;;2.13;1.23;;;22.70;99.90;;;22.71;54.12;101493.94;4973653;28;98240;-53
2023/06/25 05:39:13;;;;;;;2.23;1.67;;;22.70;99.90;;;22.70;54.07;101494.03;4960270;28;97387;-57
2023/06/25 05:41:40;;;;;;;2.30;1.80;;;22.70;99.90;;;22.71;54.03;101491.25;4986856;27;97775;-54
2023/06/25 05:44:06;;;;;;;2.63;1.80;;;22.70;99.90;;;22.68;54.21;101495.97;4980346;28;99531;-56
2023/06/25 05:46:32;;;;;;;3.10;1.90;;;22.70;99.90;;;22.66;54.19;101493.41;4988481;27;97394;-55
2023/06/25 05:48:58;;;;;;;2.60;1.70;;;22.70;99.90;;;22.68;54.29;101491.44;4984608;28;97314;-56
2023/06/25 05:51:23;;;;;;;7.07;4.23;;;22.70;99.90;;;22.76;54.65;101488.22;4985569;27;97188;-60
2023/06/25 05:53:50;;;;;;;6.40;4.73;;;22.70;99.90;;;22.80;55.18;101485.16;4969448;28;109671;-58
2023/06/25 05:56:16;;;;;;;3.77;2.33;;;22.70;99.90;;;22.79;54.00;101493.34;4986048;28;102096;-56
2023/06/25 05:58:42;;;;;;;3.20;2.23;;;22.70;99.90;;;22.80;54.03;101487.00;4985930;27;97507;-58
2023/06/25 06:01:08;;;;;;;5.13;3.80;;;22.70;99.90;;;22.83;54.64;101494.88;4967970;28;97455;-57
2023/06/25 06:03:34;;;;;;;4.43;3.27;;;22.70;99.90;;;22.84;55.22;101481.31;4985027;28;108261;-55
2023/06/25 06:06:01;;;;;;;5.43;3.47;;;22.70;99.90;;;22.85;54.53;101482.16;4976206;27;97208;-56
2023/06/25 06:08:26;;;;;;;4.80;3.90;;;22.70;99.90;;;22.85;55.46;101488.41;4954458;28;96835;-58
2023/06/25 06:10:52;;;;;;;2.77;2.13;;;22.70;99.90;;;22.83;54.03;101484.09;4984324;27;97390;-57
2023/06/25 06:13:18;;;;;;;5.43;3.43;;;22.70;99.90;;;22.85;55.64;101483.03;4982355;28;99067;-57
2023/06/25 06:15:44;;;;;;;3.03;2.37;;;22.80;99.90;;;22.84;54.36;101481.31;4981580;28;107546;-56
2023/06/25 06:18:09;;;;;;;3.57;2.87;;;22.80;99.90;;;22.84;54.32;101478.63;4974059;27;101995;-58
2023/06/25 06:20:35;;;;;;;3.03;2.03;;;22.70;99.90;;;22.75;54.16;101479.28;4975585;28;98729;-56
2023/06/25 06:23:04;;;;;;;2.83;1.57;;;22.70;99.90;;;22.76;54.06;101486.38;4983999;27;104119;-56
2023/06/25 06:25:29;;;;;;;2.90;2.07;;;22.70;99.90;;;22.78;53.98;101487.13;4983489;28;98331;-58
2023/06/25 06:27:55;;;;;;;4.43;3.47;;;22.70;99.90;;;22.84;55.45;101486.69;4983067;28;99059;-54
2023/06/25 06:30:22;;;;;;;5.17;3.33;;;22.80;99.90;;;22.85;54.88;101488.41;4987973;28;97988;-58
2023/06/25 06:32:48;;;;;;;3.17;2.17;;;22.80;99.90;;;22.81;54.08;101476.13;4991053;28;98600;-55
2023/06/25 06:35:13;;;;;;;3.67;2.63;;;22.80;99.90;;;22.86;54.39;101481.22;4975606;28;97912;-56
2023/06/25 06:37:39;;;;;;;1.80;1.60;;;22.80;99.90;;;22.75;54.11;101473.91;4976564;28;97524;-57
2023/06/25 06:40:06;;;;;;;2.47;1.73;;;22.80;99.90;;;22.74;54.28;101482.94;4981924;28;97179;-55
2023/06/25 06:42:34;;;;;;;4.33;1.90;;;22.80;99.90;;;22.74;54.12;101480.25;4991344;27;98403;-55
2023/06/25 06:45:00;;;;;;;4.13;2.93;;;22.70;99.90;;;22.78;54.16;101487.13;4977140;28;97403;-55
2023/06/25 06:47:26;;;;;;;3.23;2.20;;;22.80;99.90;;;22.84;53.98;101475.06;4963081;28;97481;-53
2023/06/25 06:49:52;;;;;;;3.73;2.50;;;22.80;99.90;;;22.87;54.11;101468.63;4985351;28;98390;-55
2023/06/25 06:52:24;;;;;;;3.97;3.07;;;22.80;99.90;;;22.91;54.54;101470.09;4979756;28;97734;-56
2023/06/25 06:54:50;;;;;;;3.97;3.23;;;22.90;99.90;;;22.97;54.26;101472.31;4984838;28;101344;-53
2023/06/25 06:57:16;;;;;;;5.23;3.03;;;22.90;99.90;;;22.97;53.96;101475.00;4975359;27;108446;-53
2023/06/25 06:59:44;;;;;;;2.93;2.37;;;22.90;99.90;;;22.97;54.26;101465.09;4980683;28;97506;-57
2023/06/25 07:02:11;;;;;;;5.77;3.53;;;22.90;99.90;;;23.02;55.85;101462.97;4971003;28;98573;-55
2023/06/25 07:04:38;;;;;;;4.13;2.80;;;23.00;99.90;;;23.07;54.54;101465.28;4982629;28;97172;-53
2023/06/25 07:07:05;;;;;;;3.17;2.87;;;23.00;99.90;;;23.08;54.10;101467.84;4980620;28;97179;-55
2023/06/25 07:09:31;;;;;;;4.40;3.13;;;23.10;99.90;;;23.04;53.54;101463.69;4977889;28;105402;-56
2023/06/25 07:11:56;;;;;;;4.90;3.00;;;23.00;99.90;;;23.14;54.08;101472.75;4964051;28;97931;-52
2023/06/25 07:14:22;;;;;;;4.23;3.63;;;23.10;99.90;;;23.22;53.81;101458.75;4978965;28;111194;-51
2023/06/25 07:16:48;;;;;;;3.33;2.73;;;23.20;99.90;;;23.14;53.23;101466.53;4978300;28;97449;-53
2023/06/25 07:19:14;;;;;;;5.03;3.60;;;23.10;99.90;;;23.17;54.28;101465.47;5339706;22;105656;-42
2023/06/25 07:21:40;;;;;;;4.73;3.50;;;23.10;99.90;;;23.11;54.24;101459.56;4956806;28;97677;-41
2023/06/25 07:24:06;;;;;;;5.23;3.87;;;23.10;99.90;;;23.19;53.44;101461.69;4948666;28;121591;-42
2023/06/25 07:26:32;;;;;;;2.75;2.10;;;23.20;99.90;;;23.25;52.94;101458.50;4958686;28;97498;-40
2023/06/25 07:28:57;;;;;;;4.38;3.17;;;23.20;99.90;;;23.20;53.71;101462.53;4954817;28;114307;-40
2023/06/25 07:31:23;;;;;;;5.97;3.25;;;23.20;99.90;;;23.23;53.71;101460.47;4947774;28;97210;-42
2023/06/25 07:33:49;;;;;;;3.40;2.75;;;23.20;99.90;;;23.24;53.14;101459.47;4946052;28;111332;-40
2023/06/25 07:36:16;;;;;;;3.75;2.63;;;23.30;99.90;;;23.26;53.67;101460.22;4958399;28;97280;-41
2023/06/25 07:38:42;;;;;;;5.03;3.25;;;23.30;99.90;;;23.32;52.93;101457.06;4937014;28;97390;-42
2023/06/25 07:41:08;;;;;;;3.70;3.03;;;23.40;99.90;;;23.33;53.40;101466.88;4963045;28;104746;-41
2023/06/25 07:43:34;;;;;;;3.40;2.90;;;23.30;99.90;;;23.39;53.48;101461.00;4948602;28;97570;-43
2023/06/25 07:45:59;;;;;;;3.97;2.97;;;23.40;99.90;;;23.37;53.31;101462.94;4948936;28;97517;-40
2023/06/25 07:48:25;;;;;;;3.13;2.42;;;23.40;99.90;;;23.18;53.20;101454.59;4954633;28;97507;-43
2023/06/25 07:50:52;;;;;;;3.58;2.58;;;23.30;99.90;;;23.13;53.21;101459.44;4958606;28;111303;-49
2023/06/25 07:53:18;;;;;;;5.47;3.58;;;23.20;99.90;;;23.32;54.29;101454.38;4963596;28;99938;-43
2023/06/25 07:55:45;;;;;;;3.25;2.90;;;23.30;99.90;;;23.48;52.91;101458.59;4955261;28;97650;-41
2023/06/25 07:58:11;;;;;;;5.03;3.10;;;23.50;99.90;;;23.58;52.58;101454.22;4956025;28;97386;-41
2023/06/25 08:00:37;;;;;;;3.00;2.70;;;23.60;99.90;;;23.58;52.93;101454.22;4949584;28;96947;-41
2023/06/25 08:03:03;;;;;;;2.83;2.40;;;23.70;99.90;;;23.49;52.29;101454.91;4945001;28;118069;-43
2023/06/25 08:05:29;;;;;;;3.67;2.70;;;23.60;99.90;;;23.32;52.62;101449.00;4952883;28;97510;-42
2023/06/25 08:07:58;;;;;;;2.90;2.47;;;23.40;99.90;;;23.21;52.94;101443.56;4945590;28;97110;-42
2023/06/25 08:10:24;;;;;;;3.83;2.72;;;23.30;99.90;;;23.06;53.15;101442.06;4958549;28;97367;-42
2023/06/25 08:12:53;;;;;;;4.25;3.13;;;23.20;99.90;;;23.27;54.67;101442.22;4963084;28;104496;-40
2023/06/25 08:15:20;;;;;;;4.03;2.53;;;23.20;99.90;;;23.30;52.88;101442.88;4951582;28;97319;-41
2023/06/25 08:17:49;;;;;;;3.28;2.40;;;23.40;99.90;;;23.15;53.03;101444.06;4953410;28;97617;-41
2023/06/25 08:20:15;;;;;;;3.88;3.08;;;23.20;99.90;;;23.05;53.19;101443.03;4958670;28;106360;-41
2023/06/25 08:22:40;;;;;;;8.13;3.53;;;23.10;99.90;;;23.06;53.26;101448.28;4947877;28;97067;-40
2023/06/25 08:25:19;;;;;;;3.97;2.38;;;23.10;99.90;;;23.06;54.87;101442.91;4937535;28;99050;-46
2023/06/25 08:27:44;;;;;;;3.38;2.70;;;23.10;99.90;;;23.22;54.43;101441.75;4934443;28;97121;-41
2023/06/25 08:30:11;;;;;;;4.05;2.55;;;23.20;99.90;;;23.04;53.11;101438.63;4941523;28;110380;-41
2023/06/25 08:32:36;;;;;;;3.37;2.63;;;23.10;99.90;;;22.85;53.37;101439.97;4947538;28;98556;-40
2023/06/25 08:35:02;;;;;;;4.43;2.83;;;23.00;99.90;;;22.82;53.54;101432.16;4952931;28;96979;-42
2023/06/25 08:37:28;;;;;;;5.63;3.13;;;23.00;99.90;;;22.81;55.38;101430.41;4950053;28;97988;-41
2023/06/25 08:39:54;;;;;;;2.67;2.47;;;22.90;99.90;;;23.21;52.08;101435.50;4947318;28;97427;-41
2023/06/25 08:42:20;;;;;;;4.00;2.40;;;23.20;99.90;;;23.23;53.29;101433.53;4955970;28;105785;-41
2023/06/25 08:44:46;;;;;;;5.07;3.25;;;23.30;99.90;;;23.24;53.38;101435.25;4954267;28;108443;-43
2023/06/25 08:47:18;;;;;;;4.00;2.90;;;23.30;99.90;;;23.56;50.68;101431.91;4931007;28;97012;-45
2023/06/25 08:49:49;;;;;;;4.28;2.92;;;23.50;99.90;;;23.53;52.01;101426.78;4929385;28;97312;-45
2023/06/25 08:52:18;;;;;;;4.70;3.03;;;23.60;99.90;;;23.45;51.91;101439.00;4951860;28;98196;-43
2023/06/25 08:54:45;;;;;;;4.38;2.78;;;23.50;99.90;;;23.65;51.63;101436.63;4932445;28;97439;-42
2023/06/25 08:57:11;;;;;;;2.83;2.35;;;23.70;99.90;;;23.49;51.88;101423.47;4948342;28;103971;-43
2023/06/25 08:59:37;;;;;;;3.95;2.65;;;23.60;99.90;;;23.78;50.38;101434.69;4924055;28;103751;-44
2023/06/25 09:02:03;;;;;;;5.47;3.05;;;23.80;99.90;;;24.10;47.56;101424.03;4939675;28;98096;-44
2023/06/25 09:04:29;;;;;;;3.38;2.80;;;24.10;99.90;;;24.25;47.94;101433.56;4947613;28;98488;-41
2023/06/25 09:06:55;;;;;;;4.20;3.00;;;24.40;99.90;;;23.94;49.94;101428.94;4949301;28;111518;-41
2023/06/25 09:09:21;;;;;;;3.65;2.47;;;24.10;99.90;;;23.72;51.05;101429.75;4949085;28;98218;-45
2023/06/25 09:11:46;;;;;;;3.97;2.60;;;23.90;99.90;;;23.66;51.36;101424.88;4952134;28;98044;-43
2023/06/25 09:14:12;;;;;;;5.28;2.70;;;23.70;99.90;;;23.73;51.20;101426.13;4952853;28;98293;-47
2023/06/25 09:16:49;;;;;;;3.80;2.53;;;23.80;99.90;;;24.00;48.79;101414.94;4953322;28;98384;-43
2023/06/25 09:19:21;;;;;;;3.72;2.63;;;24.00;99.90;;;23.86;50.25;101418.75;4933738;28;98111;-43
2023/06/25 09:21:48;;;;;;;6.90;2.90;;;23.90;99.90;;;24.15;46.79;101415.56;4960008;28;101287;-43
2023/06/25 09:24:20;;;;;;;3.47;2.53;;;24.20;99.90;;;24.17;48.96;101410.94;4963953;28;97022;-45
2023/06/25 09:26:48;;;;;;;5.50;2.70;;;24.30;99.90;;;24.23;48.84;101410.41;4959782;28;97024;-45
2023/06/25 09:29:15;;;;;;;6.15;2.50;;;24.40;99.90;;;24.12;49.25;101402.34;4950622;28;97450;-44
2023/06/25 09:31:43;;;;;;;4.55;2.63;;;24.30;99.90;;;23.95;49.92;101401.84;4944723;28;99278;-44
2023/06/25 09:34:10;;;;;;;3.15;2.38;;;24.10;99.90;;;23.92;48.74;101404.81;4941642;28;98390;-43
2023/06/25 09:36:36;;;;;;;3.20;2.65;;;24.00;99.90;;;23.88;49.82;101403.34;4946252;28;97594;-43
2023/06/25 09:39:04;;;;;;;3.97;2.58;;;24.00;99.90;;;23.98;48.17;101398.06;4945212;28;103237;-43
2023/06/25 09:41:33;;;;;;;3.42;2.47;;;24.00;99.90;;;24.07;49.52;101391.09;4927581;28;97596;-44
2023/06/25 09:44:03;;;;;;;4.18;2.80;;;24.20;99.90;;;24.17;48.31;101398.31;4941957;28;97302;-45
2023/06/25 09:46:36;;;;;;;4.05;2.60;;;24.20;99.90;;;23.83;50.03;101397.44;4945536;28;99853;-43
2023/06/25 09:49:02;;;;;;;3.17;2.22;;;24.00;99.90;;;23.84;50.32;101388.38;4942846;28;100465;-44
2023/06/25 09:52:12;;;;;;;3.80;2.97;;;23.90;99.90;;;24.06;47.56;101392.06;4945529;28;98272;-43
2023/06/25 09:54:41;;;;;;;3.17;2.05;;;24.00;99.90;;;23.71;50.67;101390.34;4938747;28;97003;-43
2023/06/25 09:57:10;;;;;;;3.83;2.63;;;23.90;99.90;;;23.55;50.78;101379.88;4943472;28;98806;-42
2023/06/25 09:59:38;;;;;;;3.55;2.58;;;23.80;99.90;;;23.44;51.63;101380.75;4914575;28;97108;-42
2023/06/25 10:02:07;;;;;;;4.05;2.63;;;23.60;99.90;;;23.90;47.36;101377.13;4927753;28;99557;-42
2023/06/25 10:04:34;;;;;;;3.30;2.60;;;23.90;99.90;;;24.51;44.39;101379.38;4926035;28;97559;-43
2023/06/25 10:07:02;;;;;;;3.55;2.70;;;24.50;99.90;;;24.31;48.52;101372.94;4943030;28;97536;-43
2023/06/25 10:09:28;;;;;;;2.47;2.22;;;24.50;99.90;;;24.20;48.08;101381.03;4905822;28;99688;-42